Wetterdaten: Woche 11.02.08 - 17.02.08 (KW7)
Datum Zeit Temperatur Luftfeuchte Luftdruck Niederschlag Wind Richtung Sonnenschein Solar Taupunkt Windchill Windben
11.02.2008 00:00 2.2 C 72 % 1033.3 hPa 0.0 l/m 1.4 km/h (1 Bft) O-SO 0.00 h 0 W/m -2.3 C 2.2 C 3.1 km/h (1 Bft)
11.02.2008 01:00 0.6 C 80 % 1033.1 hPa 0.0 l/m 1.2 km/h (1 Bft) O-SO 0.00 h 0 W/m -2.4 C 0.6 C 2.0 km/h (1 Bft)
11.02.2008 02:00 0.1 C 84 % 1032.8 hPa 0.0 l/m 0.2 km/h (0 Bft) O-SO 0.00 h 0 W/m -2.3 C 0.1 C 0.7 km/h (0 Bft)
11.02.2008 03:00 -0.3 C 85 % 1032.7 hPa 0.0 l/m 0.2 km/h (0 Bft) O-SO 0.00 h 0 W/m -2.4 C -0.3 C 0.6 km/h (0 Bft)
11.02.2008 04:00 0.0 C 81 % 1032.7 hPa 0.0 l/m 2.3 km/h (1 Bft) O-SO 0.00 h 0 W/m -2.8 C -0.1 C 3.8 km/h (1 Bft)
11.02.2008 05:00 0.6 C 75 % 1032.6 hPa 0.0 l/m 3.8 km/h (1 Bft) O-SO 0.00 h 0 W/m -3.3 C -0.0 C 5.2 km/h (1 Bft)
11.02.2008 06:00 -0.1 C 78 % 1032.8 hPa 0.0 l/m 3.5 km/h (1 Bft) O-SO 0.00 h 0 W/m -3.5 C -0.5 C 5.0 km/h (1 Bft)
11.02.2008 07:00 -0.3 C 78 % 1032.8 hPa 0.0 l/m 2.2 km/h (1 Bft) O-SO 0.05 h 9 W/m -3.7 C -0.3 C 3.7 km/h (1 Bft)
11.02.2008 08:00 0.1 C 78 % 1033.2 hPa 0.0 l/m 0.7 km/h (0 Bft) O-SO 0.27 h 55 W/m -3.2 C 0.1 C 1.7 km/h (1 Bft)
11.02.2008 09:00 2.7 C 70 % 1033.3 hPa 0.0 l/m 3.7 km/h (1 Bft) O-SO 1.00 h 191 W/m -2.2 C 2.3 C 6.1 km/h (2 Bft)
11.02.2008 10:00 4.6 C 64 % 1033.2 hPa 0.0 l/m 7.3 km/h (2 Bft) O-SO 0.93 h 295 W/m -1.6 C 3.0 C 11.3 km/h (2 Bft)
11.02.2008 11:00 6.3 C 56 % 1032.9 hPa 0.0 l/m 5.9 km/h (2 Bft) O-SO 1.00 h 404 W/m -1.8 C 5.4 C 9.7 km/h (2 Bft)
11.02.2008 12:00 7.9 C 49 % 1032.5 hPa 0.0 l/m 10.9 km/h (2 Bft) O-SO 1.00 h 440 W/m -2.1 C 6.1 C 16.1 km/h (3 Bft)
11.02.2008 13:00 8.6 C 48 % 1031.9 hPa 0.0 l/m 8.8 km/h (2 Bft) O-SO 1.00 h 426 W/m -1.9 C 7.2 C 14.0 km/h (3 Bft)
11.02.2008 14:00 9.6 C 44 % 1031.5 hPa 0.0 l/m 6.5 km/h (2 Bft) O-SO 1.00 h 363 W/m -2.2 C 8.8 C 10.7 km/h (2 Bft)
11.02.2008 15:00 10.2 C 41 % 1031.0 hPa 0.0 l/m 4.3 km/h (1 Bft) NO 1.00 h 253 W/m -2.5 C 10.1 C 9.1 km/h (2 Bft)
11.02.2008 16:00 9.3 C 43 % 1031.2 hPa 0.0 l/m 6.3 km/h (2 Bft) O-SO 1.00 h 121 W/m -2.8 C 8.6 C 11.5 km/h (2 Bft)
11.02.2008 17:00 8.0 C 47 % 1031.7 hPa 0.0 l/m 2.8 km/h (1 Bft) O-SO 0.10 h 22 W/m -2.7 C 7.9 C 6.2 km/h (2 Bft)
11.02.2008 18:00 6.7 C 51 % 1032.3 hPa 0.0 l/m 3.0 km/h (1 Bft) O-SO 0.00 h 0 W/m -2.7 C 6.4 C 5.8 km/h (2 Bft)
11.02.2008 19:00 5.3 C 57 % 1032.6 hPa 0.0 l/m 1.4 km/h (1 Bft) O-SO 0.00 h 0 W/m -2.5 C 5.3 C 3.2 km/h (1 Bft)
11.02.2008 20:00 3.2 C 66 % 1033.0 hPa 0.0 l/m 1.6 km/h (1 Bft) O-SO 0.00 h 0 W/m -2.5 C 3.2 C 2.9 km/h (1 Bft)
11.02.2008 21:00 2.1 C 70 % 1033.2 hPa 0.0 l/m 0.5 km/h (0 Bft) O-SO 0.00 h 0 W/m -2.7 C 2.1 C 1.3 km/h (1 Bft)
11.02.2008 22:00 0.8 C 80 % 1033.4 hPa 0.0 l/m 0.6 km/h (0 Bft) S-SO 0.00 h 0 W/m -2.3 C 0.8 C 1.3 km/h (1 Bft)
11.02.2008 23:00 -0.1 C 84 % 1033.6 hPa 0.0 l/m 1.3 km/h (1 Bft) O-SO 0.00 h 0 W/m -2.4 C -0.5 C 1.7 km/h (1 Bft)
12.02.2008 00:00 -0.7 C 87 % 1033.7 hPa 0.0 l/m 0.4 km/h (0 Bft) O-SO 0.00 h 0 W/m -2.6 C -0.7 C 1.1 km/h (1 Bft)
12.02.2008 01:00 -0.7 C 88 % 1033.5 hPa 0.0 l/m 0.9 km/h (0 Bft) O-SO 0.00 h 0 W/m -2.4 C -0.7 C 1.9 km/h (1 Bft)
12.02.2008 02:00 -1.1 C 90 % 1033.3 hPa 0.0 l/m 0.6 km/h (0 Bft) O-SO 0.00 h 0 W/m -2.5 C -1.1 C 1.1 km/h (1 Bft)
12.02.2008 03:00 -1.5 C 92 % 1033.2 hPa 0.0 l/m 0.6 km/h (0 Bft) O-SO 0.00 h 0 W/m -2.6 C -1.5 C 1.1 km/h (0 Bft)
12.02.2008 04:00 -1.7 C 93 % 1033.3 hPa 0.0 l/m 1.8 km/h (1 Bft) O-SO 0.00 h 0 W/m -2.7 C -1.9 C 2.4 km/h (1 Bft)
12.02.2008 05:00 -2.0 C 94 % 1033.3 hPa 0.0 l/m 0.0 km/h (0 Bft) N 0.00 h 0 W/m -2.9 C -2.0 C 0.0 km/h (0 Bft)
12.02.2008 06:00 -2.2 C 94 % 1033.4 hPa 0.0 l/m 0.8 km/h (0 Bft) O-SO 0.00 h 0 W/m -3.0 C -2.2 C 1.5 km/h (1 Bft)
12.02.2008 07:00 -2.4 C 94 % 1033.7 hPa 0.0 l/m 0.2 km/h (0 Bft) O-SO 0.05 h 10 W/m -3.3 C -2.4 C 0.7 km/h (0 Bft)
12.02.2008 08:00 -2.1 C 95 % 1034.1 hPa 0.0 l/m 0.2 km/h (0 Bft) O-SO 0.50 h 67 W/m -2.9 C -2.1 C 0.4 km/h (0 Bft)
12.02.2008 09:00 -0.9 C 93 % 1034.3 hPa 0.0 l/m 0.1 km/h (0 Bft) O-SO 0.33 h 125 W/m -1.9 C -0.9 C 0.3 km/h (0 Bft)
12.02.2008 10:00 0.5 C 87 % 1034.0 hPa 0.0 l/m 0.5 km/h (0 Bft) O-SO 0.68 h 236 W/m -1.3 C 0.5 C 1.7 km/h (1 Bft)
12.02.2008 11:00 3.4 C 75 % 1033.6 hPa 0.0 l/m 2.9 km/h (1 Bft) SO 0.97 h 358 W/m -0.7 C 2.9 C 5.2 km/h (1 Bft)
12.02.2008 12:00 6.4 C 61 % 1032.7 hPa 0.0 l/m 4.8 km/h (1 Bft) SO 1.00 h 425 W/m -0.7 C 5.6 C 8.0 km/h (2 Bft)
12.02.2008 13:00 8.0 C 55 % 1031.7 hPa 0.0 l/m 4.1 km/h (1 Bft) SO 1.00 h 410 W/m -0.4 C 7.7 C 6.8 km/h (2 Bft)
12.02.2008 14:00 9.6 C 50 % 1030.8 hPa 0.0 l/m 4.4 km/h (1 Bft) S-SO 1.00 h 355 W/m -0.3 C 9.3 C 8.0 km/h (2 Bft)
12.02.2008 15:00 9.7 C 45 % 1030.6 hPa 0.0 l/m 4.0 km/h (1 Bft) O-SO 1.00 h 241 W/m -1.6 C 9.5 C 7.1 km/h (2 Bft)
12.02.2008 16:00 9.3 C 46 % 1030.5 hPa 0.0 l/m 2.5 km/h (1 Bft) O-SO 1.00 h 124 W/m -1.6 C 9.2 C 4.5 km/h (1 Bft)
12.02.2008 17:00 6.9 C 56 % 1030.8 hPa 0.0 l/m 3.0 km/h (1 Bft) O-SO 0.02 h 21 W/m -1.3 C 6.8 C 4.4 km/h (1 Bft)
12.02.2008 18:00 4.5 C 65 % 1031.6 hPa 0.0 l/m 5.3 km/h (1 Bft) O-SO 0.00 h 0 W/m -1.5 C 3.4 C 6.6 km/h (2 Bft)
12.02.2008 19:00 2.3 C 75 % 1032.3 hPa 0.0 l/m 1.4 km/h (1 Bft) O-SO 0.00 h 0 W/m -1.7 C 2.2 C 2.6 km/h (1 Bft)
12.02.2008 20:00 1.0 C 79 % 1032.7 hPa 0.0 l/m 1.4 km/h (1 Bft) O-SO 0.00 h 0 W/m -2.2 C 0.8 C 2.1 km/h (1 Bft)
12.02.2008 21:00 0.0 C 83 % 1033.0 hPa 0.0 l/m 0.3 km/h (0 Bft) O-SO 0.00 h 0 W/m -2.5 C 0.0 C 0.9 km/h (0 Bft)
12.02.2008 22:00 -0.6 C 86 % 1033.2 hPa 0.0 l/m 0.1 km/h (0 Bft) O-SO 0.00 h 0 W/m -2.6 C -0.6 C 0.4 km/h (0 Bft)
12.02.2008 23:00 -1.2 C 87 % 1033.1 hPa 0.0 l/m 0.2 km/h (0 Bft) O-SO 0.00 h 0 W/m -3.1 C -1.2 C 0.7 km/h (0 Bft)
13.02.2008 00:00 -1.7 C 88 % 1033.1 hPa 0.0 l/m 1.1 km/h (1 Bft) O-SO 0.00 h 0 W/m -3.4 C -1.8 C 1.6 km/h (1 Bft)
13.02.2008 01:00 -2.0 C 86 % 1033.2 hPa 0.0 l/m 0.1 km/h (0 Bft) O-SO 0.00 h 0 W/m -4.1 C -2.0 C 0.2 km/h (0 Bft)
13.02.2008 02:00 -2.5 C 88 % 1033.3 hPa 0.0 l/m 1.9 km/h (1 Bft) O-SO 0.00 h 0 W/m -4.2 C -2.7 C 2.8 km/h (1 Bft)
13.02.2008 03:00 -2.4 C 90 % 1033.3 hPa 0.0 l/m 0.0 km/h (0 Bft) N 0.00 h 0 W/m -3.9 C -2.4 C 0.1 km/h (0 Bft)
13.02.2008 04:00 -3.3 C 90 % 1033.6 hPa 0.0 l/m 0.1 km/h (0 Bft) O-SO 0.00 h 0 W/m -4.8 C -3.3 C 0.1 km/h (0 Bft)
13.02.2008 05:00 -3.8 C 91 % 1034.3 hPa 0.0 l/m 0.2 km/h (0 Bft) O-SO 0.00 h 0 W/m -5.0 C -3.8 C 0.5 km/h (0 Bft)
13.02.2008 06:00 -3.8 C 92 % 1034.8 hPa 0.0 l/m 0.5 km/h (0 Bft) O-SO 0.00 h 0 W/m -4.8 C -3.8 C 1.2 km/h (1 Bft)
13.02.2008 07:00 -3.9 C 93 % 1035.5 hPa 0.0 l/m 0.7 km/h (0 Bft) O-SO 0.02 h 10 W/m -4.9 C -3.9 C 1.2 km/h (1 Bft)
13.02.2008 08:00 -3.7 C 92 % 1035.9 hPa 0.0 l/m 0.0 km/h (0 Bft) N 0.00 h 52 W/m -4.8 C -3.7 C 0.0 km/h (0 Bft)
13.02.2008 09:00 -2.4 C 92 % 1036.2 hPa 0.0 l/m 0.0 km/h (0 Bft) N 0.78 h 172 W/m -3.5 C -2.4 C 0.1 km/h (0 Bft)
13.02.2008 10:00 -0.6 C 87 % 1036.1 hPa 0.0 l/m 0.1 km/h (0 Bft) O-SO 1.00 h 288 W/m -2.5 C -0.6 C 0.7 km/h (0 Bft)
13.02.2008 11:00 1.8 C 79 % 1035.8 hPa 0.0 l/m 1.3 km/h (1 Bft) O-SO 1.00 h 374 W/m -1.5 C 1.8 C 2.7 km/h (1 Bft)
13.02.2008 12:00 4.6 C 66 % 1035.1 hPa 0.0 l/m 2.5 km/h (1 Bft) W 1.00 h 411 W/m -1.1 C 4.6 C 4.4 km/h (1 Bft)
13.02.2008 13:00 6.3 C 59 % 1034.5 hPa 0.0 l/m 2.4 km/h (1 Bft) W 1.00 h 404 W/m -1.1 C 6.2 C 4.2 km/h (1 Bft)
13.02.2008 14:00 7.7 C 56 % 1034.0 hPa 0.0 l/m 1.4 km/h (1 Bft) W 1.00 h 347 W/m -0.5 C 7.6 C 3.2 km/h (1 Bft)
13.02.2008 15:00 8.3 C 55 % 1034.0 hPa 0.0 l/m 1.2 km/h (1 Bft) S-SW 1.00 h 241 W/m -0.1 C 8.3 C 3.0 km/h (1 Bft)
13.02.2008 16:00 8.5 C 55 % 1034.0 hPa 0.0 l/m 1.5 km/h (1 Bft) W-SW 1.00 h 118 W/m -0.1 C 8.5 C 2.9 km/h (1 Bft)
13.02.2008 17:00 6.6 C 60 % 1034.4 hPa 0.0 l/m 1.1 km/h (1 Bft) S 0.03 h 24 W/m -0.6 C 6.5 C 1.8 km/h (1 Bft)
13.02.2008 18:00 3.2 C 74 % 1035.0 hPa 0.0 l/m 2.6 km/h (1 Bft) SO 0.00 h 0 W/m -1.0 C 2.7 C 3.6 km/h (1 Bft)
13.02.2008 19:00 1.4 C 81 % 1035.7 hPa 0.0 l/m 1.5 km/h (1 Bft) SO 0.00 h 0 W/m -1.5 C 1.3 C 2.4 km/h (1 Bft)
13.02.2008 20:00 0.1 C 85 % 1035.9 hPa 0.0 l/m 1.3 km/h (1 Bft) SO 0.00 h 0 W/m -2.1 C -0.1 C 2.2 km/h (1 Bft)
13.02.2008 21:00 -0.5 C 87 % 1036.2 hPa 0.0 l/m 1.2 km/h (1 Bft) SO 0.00 h 0 W/m -2.4 C -0.5 C 2.1 km/h (1 Bft)
13.02.2008 22:00 -0.9 C 89 % 1036.1 hPa 0.0 l/m 1.3 km/h (1 Bft) SO 0.00 h 0 W/m -2.5 C -0.9 C 1.9 km/h (1 Bft)
13.02.2008 23:00 -1.4 C 90 % 1036.0 hPa 0.0 l/m 0.9 km/h (0 Bft) SO 0.00 h 0 W/m -2.9 C -1.4 C 1.8 km/h (1 Bft)
14.02.2008 00:00 -2.0 C 91 % 1035.9 hPa 0.0 l/m 0.1 km/h (0 Bft) SO 0.00 h 0 W/m -3.3 C -2.0 C 0.9 km/h (0 Bft)
14.02.2008 01:00 -2.6 C 93 % 1035.7 hPa 0.0 l/m 0.7 km/h (0 Bft) SO 0.00 h 0 W/m -3.6 C -2.6 C 1.4 km/h (1 Bft)
14.02.2008 02:00 -2.8 C 93 % 1035.5 hPa 0.0 l/m 0.5 km/h (0 Bft) SO 0.00 h 0 W/m -3.7 C -2.8 C 1.2 km/h (1 Bft)
14.02.2008 03:00 -3.3 C 94 % 1035.5 hPa 0.0 l/m 0.7 km/h (0 Bft) SO 0.00 h 0 W/m -4.1 C -3.3 C 1.2 km/h (1 Bft)
14.02.2008 04:00 -3.4 C 94 % 1035.6 hPa 0.0 l/m 0.4 km/h (0 Bft) SO 0.00 h 0 W/m -4.2 C -3.4 C 1.0 km/h (0 Bft)
14.02.2008 05:00 -3.7 C 94 % 1036.0 hPa 0.0 l/m 1.0 km/h (0 Bft) SO 0.00 h 0 W/m -4.6 C -3.7 C 1.9 km/h (1 Bft)
14.02.2008 06:00 -4.2 C 94 % 1036.3 hPa 0.0 l/m 0.5 km/h (0 Bft) SO 0.00 h 0 W/m -5.0 C -4.2 C 0.9 km/h (0 Bft)
14.02.2008 07:00 -4.4 C 94 % 1036.4 hPa 0.0 l/m 0.0 km/h (0 Bft) SO 0.02 h 10 W/m -5.2 C -4.4 C 0.1 km/h (0 Bft)
14.02.2008 08:00 -4.3 C 95 % 1036.6 hPa 0.0 l/m 0.6 km/h (0 Bft) SO 0.00 h 49 W/m -5.1 C -4.3 C 1.1 km/h (1 Bft)
14.02.2008 09:00 -3.5 C 96 % 1036.5 hPa 0.0 l/m 0.2 km/h (0 Bft) SO 0.03 h 113 W/m -4.1 C -3.5 C 0.9 km/h (0 Bft)
14.02.2008 10:00 -2.1 C 96 % 1036.2 hPa 0.0 l/m 0.3 km/h (0 Bft) SO 1.00 h 271 W/m -2.7 C -2.1 C 1.2 km/h (1 Bft)
14.02.2008 11:00 0.4 C 87 % 1035.5 hPa 0.0 l/m 0.3 km/h (0 Bft) SO 1.00 h 374 W/m -1.5 C 0.4 C 1.4 km/h (1 Bft)
14.02.2008 12:00 2.9 C 78 % 1034.5 hPa 0.0 l/m 2.0 km/h (1 Bft) SO 1.00 h 428 W/m -0.5 C 2.9 C 3.7 km/h (1 Bft)
14.02.2008 13:00 5.4 C 68 % 1033.2 hPa 0.0 l/m 1.9 km/h (1 Bft) W-SW 1.00 h 423 W/m -0.1 C 5.4 C 3.6 km/h (1 Bft)
14.02.2008 14:00 7.5 C 60 % 1032.3 hPa 0.0 l/m 1.6 km/h (1 Bft) W-SW 1.00 h 361 W/m 0.2 C 7.5 C 3.2 km/h (1 Bft)
14.02.2008 15:00 9.0 C 47 % 1031.7 hPa 0.0 l/m 1.0 km/h (0 Bft) W-SW 1.00 h 279 W/m -1.7 C 9.0 C 2.1 km/h (1 Bft)
14.02.2008 16:00 8.9 C 53 % 1031.4 hPa 0.0 l/m 3.0 km/h (1 Bft) N 1.00 h 135 W/m -0.2 C 8.9 C 5.2 km/h (1 Bft)
14.02.2008 17:00 6.7 C 62 % 1031.5 hPa 0.0 l/m 0.4 km/h (0 Bft) N-NW 0.07 h 25 W/m -0.1 C 6.7 C 1.4 km/h (1 Bft)
14.02.2008 18:00 3.5 C 69 % 1032.3 hPa 0.0 l/m 1.3 km/h (1 Bft) N-NW 0.00 h 0 W/m -1.6 C 3.4 C 2.2 km/h (1 Bft)
14.02.2008 19:00 1.4 C 75 % 1032.9 hPa 0.0 l/m 1.4 km/h (1 Bft) O 0.00 h 0 W/m -2.5 C 1.4 C 2.4 km/h (1 Bft)
14.02.2008 20:00 0.7 C 77 % 1033.1 hPa 0.0 l/m 0.9 km/h (0 Bft) O 0.00 h 0 W/m -2.9 C 0.7 C 2.0 km/h (1 Bft)
14.02.2008 21:00 0.1 C 82 % 1033.2 hPa 0.0 l/m 0.4 km/h (0 Bft) O 0.00 h 0 W/m -2.6 C 0.1 C 1.7 km/h (1 Bft)
14.02.2008 22:00 -0.5 C 90 % 1033.3 hPa 0.0 l/m 2.2 km/h (1 Bft) N 0.00 h 0 W/m -1.9 C -0.8 C 4.1 km/h (1 Bft)
14.02.2008 23:00 -0.7 C 96 % 1033.1 hPa 0.0 l/m 3.7 km/h (1 Bft) N 0.00 h 0 W/m -1.3 C -1.3 C 6.4 km/h (2 Bft)
15.02.2008 00:00 -0.9 C 97 % 1032.9 hPa 0.0 l/m 3.3 km/h (1 Bft) N 0.00 h 0 W/m -1.3 C -1.3 C 5.6 km/h (1 Bft)
15.02.2008 01:00 -1.0 C 97 % 1032.7 hPa 0.0 l/m 4.1 km/h (1 Bft) NW 0.00 h 0 W/m -1.4 C -2.0 C 7.3 km/h (2 Bft)
15.02.2008 02:00 -1.2 C 97 % 1032.4 hPa 0.0 l/m 3.7 km/h (1 Bft) W-NW 0.00 h 0 W/m -1.6 C -1.7 C 6.4 km/h (2 Bft)
15.02.2008 03:00 -1.2 C 96 % 1032.1 hPa 0.0 l/m 4.0 km/h (1 Bft) NW 0.00 h 0 W/m -1.8 C -2.0 C 6.2 km/h (2 Bft)
15.02.2008 04:00 -1.3 C 96 % 1032.2 hPa 0.0 l/m 2.7 km/h (1 Bft) N-NW 0.00 h 0 W/m -1.9 C -1.7 C 4.8 km/h (1 Bft)
15.02.2008 05:00 -1.4 C 95 % 1032.7 hPa 0.0 l/m 2.8 km/h (1 Bft) N 0.00 h 0 W/m -2.1 C -1.7 C 5.2 km/h (1 Bft)
15.02.2008 06:00 -1.7 C 93 % 1033.4 hPa 0.0 l/m 0.7 km/h (0 Bft) N 0.00 h 0 W/m -2.7 C -1.7 C 1.7 km/h (1 Bft)
15.02.2008 07:00 -1.4 C 89 % 1033.8 hPa 0.0 l/m 0.6 km/h (0 Bft) O 0.00 h 5 W/m -3.1 C -1.4 C 1.5 km/h (1 Bft)
15.02.2008 08:00 -1.0 C 89 % 1034.2 hPa 0.0 l/m 2.2 km/h (1 Bft) O-SO 0.00 h 14 W/m -2.6 C -1.5 C 4.7 km/h (1 Bft)
15.02.2008 09:00 -0.5 C 86 % 1034.5 hPa 0.0 l/m 3.0 km/h (1 Bft) O-NO 0.00 h 28 W/m -2.5 C -0.9 C 5.9 km/h (2 Bft)
15.02.2008 10:00 -0.2 C 85 % 1034.7 hPa 0.0 l/m 3.3 km/h (1 Bft) O-SO 0.00 h 39 W/m -2.3 C -0.7 C 6.8 km/h (2 Bft)
15.02.2008 11:00 0.0 C 85 % 1034.8 hPa 0.0 l/m 3.7 km/h (1 Bft) O-NO 0.00 h 53 W/m -2.2 C -0.7 C 8.1 km/h (2 Bft)
15.02.2008 12:00 0.3 C 83 % 1034.7 hPa 0.0 l/m 3.9 km/h (1 Bft) O-SO 0.00 h 67 W/m -2.2 C -0.5 C 7.9 km/h (2 Bft)
15.02.2008 13:00 0.5 C 81 % 1034.5 hPa 0.0 l/m 4.4 km/h (1 Bft) O 0.00 h 60 W/m -2.3 C -0.4 C 8.7 km/h (2 Bft)
15.02.2008 14:00 0.8 C 81 % 1034.5 hPa 0.0 l/m 4.0 km/h (1 Bft) O-SO 0.00 h 45 W/m -2.1 C 0.0 C 7.7 km/h (2 Bft)
15.02.2008 15:00 1.1 C 79 % 1034.5 hPa 0.0 l/m 4.1 km/h (1 Bft) O 0.00 h 26 W/m -2.1 C 0.3 C 8.6 km/h (2 Bft)
15.02.2008 16:00 1.1 C 79 % 1034.8 hPa 0.0 l/m 3.4 km/h (1 Bft) NO 0.00 h 12 W/m -2.2 C 0.6 C 7.1 km/h (2 Bft)
15.02.2008 17:00 1.1 C 77 % 1034.8 hPa 0.0 l/m 3.6 km/h (1 Bft) NO 0.00 h 6 W/m -2.5 C 0.4 C 7.6 km/h (2 Bft)
15.02.2008 18:00 1.0 C 74 % 1035.4 hPa 0.0 l/m 4.7 km/h (1 Bft) O-SO 0.00 h 0 W/m -3.1 C 0.1 C 9.3 km/h (2 Bft)
15.02.2008 19:00 0.8 C 67 % 1035.9 hPa 0.0 l/m 7.1 km/h (2 Bft) O-SO 0.00 h 0 W/m -4.6 C -1.2 C 13.6 km/h (3 Bft)
15.02.2008 20:00 0.8 C 66 % 1036.1 hPa 0.0 l/m 5.4 km/h (1 Bft) O-SO 0.00 h 0 W/m -4.8 C -0.5 C 10.4 km/h (2 Bft)
15.02.2008 21:00 0.8 C 64 % 1036.2 hPa 0.0 l/m 5.9 km/h (2 Bft) O-SO 0.00 h 0 W/m -5.3 C -0.7 C 10.9 km/h (2 Bft)
15.02.2008 22:00 0.7 C 64 % 1036.5 hPa 0.0 l/m 3.9 km/h (1 Bft) NO 0.00 h 0 W/m -5.4 C -0.1 C 8.3 km/h (2 Bft)
15.02.2008 23:00 0.1 C 64 % 1036.6 hPa 0.0 l/m 2.7 km/h (1 Bft) NO 0.00 h 0 W/m -6.0 C -0.2 C 6.0 km/h (2 Bft)
16.02.2008 00:00 -0.4 C 63 % 1036.7 hPa 0.0 l/m 3.4 km/h (1 Bft) O-SO 0.00 h 0 W/m -6.6 C -0.8 C 6.5 km/h (2 Bft)
16.02.2008 01:00 -0.6 C 64 % 1036.7 hPa 0.0 l/m 2.8 km/h (1 Bft) O 0.00 h 0 W/m -6.4 C -0.9 C 5.7 km/h (1 Bft)
16.02.2008 02:00 -0.8 C 65 % 1037.1 hPa 0.0 l/m 3.1 km/h (1 Bft) NO 0.00 h 0 W/m -6.6 C -1.3 C 6.3 km/h (2 Bft)
16.02.2008 03:00 -1.0 C 62 % 1037.2 hPa 0.0 l/m 2.3 km/h (1 Bft) N-NO 0.00 h 0 W/m -7.4 C -1.3 C 5.1 km/h (1 Bft)
16.02.2008 04:00 -1.5 C 63 % 1037.6 hPa 0.0 l/m 2.9 km/h (1 Bft) O 0.00 h 0 W/m -7.7 C -2.0 C 5.7 km/h (1 Bft)
16.02.2008 05:00 -1.9 C 65 % 1038.2 hPa 0.0 l/m 1.6 km/h (1 Bft) O 0.00 h 0 W/m -7.6 C -2.1 C 3.5 km/h (1 Bft)
16.02.2008 06:00 -2.4 C 67 % 1038.5 hPa 0.0 l/m 1.3 km/h (1 Bft) NO 0.00 h 0 W/m -7.6 C -2.5 C 3.5 km/h (1 Bft)
16.02.2008 07:00 -2.7 C 69 % 1039.2 hPa 0.0 l/m 1.3 km/h (1 Bft) O 0.03 h 11 W/m -7.6 C -2.7 C 3.4 km/h (1 Bft)
16.02.2008 08:00 -2.2 C 64 % 1040.0 hPa 0.0 l/m 2.4 km/h (1 Bft) O-SO 0.50 h 80 W/m -8.0 C -2.7 C 5.5 km/h (1 Bft)
16.02.2008 09:00 -0.9 C 58 % 1040.3 hPa 0.0 l/m 6.8 km/h (2 Bft) O-SO 1.00 h 231 W/m -8.1 C -2.9 C 13.0 km/h (3 Bft)
16.02.2008 10:00 0.5 C 54 % 1040.4 hPa 0.0 l/m 6.4 km/h (2 Bft) O-SO 1.00 h 353 W/m -7.8 C -1.2 C 12.0 km/h (2 Bft)
16.02.2008 11:00 1.4 C 49 % 1040.4 hPa 0.0 l/m 9.1 km/h (2 Bft) O-SO 1.00 h 438 W/m -8.2 C -1.1 C 16.1 km/h (3 Bft)
16.02.2008 12:00 2.5 C 42 % 1040.2 hPa 0.0 l/m 9.3 km/h (2 Bft) O-SO 1.00 h 482 W/m -9.0 C 0.0 C 17.3 km/h (3 Bft)
16.02.2008 13:00 3.8 C 38 % 1039.6 hPa 0.0 l/m 7.2 km/h (2 Bft) O-SO 1.00 h 468 W/m -9.2 C 2.1 C 13.5 km/h (3 Bft)
16.02.2008 14:00 4.5 C 36 % 1039.2 hPa 0.0 l/m 7.8 km/h (2 Bft) O-SO 1.00 h 405 W/m -9.3 C 2.8 C 14.6 km/h (3 Bft)
16.02.2008 15:00 4.8 C 35 % 1039.1 hPa 0.0 l/m 6.6 km/h (2 Bft) O-SO 1.00 h 296 W/m -9.2 C 3.5 C 11.8 km/h (2 Bft)
16.02.2008 16:00 4.5 C 37 % 1039.6 hPa 0.0 l/m 5.3 km/h (1 Bft) O-SO 1.00 h 156 W/m -9.0 C 3.5 C 9.7 km/h (2 Bft)
16.02.2008 17:00 3.2 C 41 % 1040.0 hPa 0.0 l/m 4.6 km/h (1 Bft) O 0.53 h 33 W/m -8.8 C 2.4 C 9.3 km/h (2 Bft)
16.02.2008 18:00 1.6 C 47 % 1040.7 hPa 0.0 l/m 4.6 km/h (1 Bft) NO 0.00 h 0 W/m -8.4 C 0.6 C 9.5 km/h (2 Bft)
16.02.2008 19:00 0.6 C 51 % 1041.0 hPa 0.0 l/m 3.2 km/h (1 Bft) O 0.00 h 0 W/m -8.3 C 0.2 C 6.6 km/h (2 Bft)
16.02.2008 20:00 -0.0 C 53 % 1041.3 hPa 0.0 l/m 2.8 km/h (1 Bft) O-SO 0.00 h 0 W/m -8.4 C -0.4 C 5.8 km/h (2 Bft)
16.02.2008 21:00 -0.5 C 54 % 1041.7 hPa 0.0 l/m 2.3 km/h (1 Bft) O-SO 0.00 h 0 W/m -8.6 C -0.8 C 5.2 km/h (1 Bft)
16.02.2008 22:00 -1.0 C 55 % 1042.1 hPa 0.0 l/m 3.5 km/h (1 Bft) O 0.00 h 0 W/m -8.8 C -1.7 C 7.0 km/h (2 Bft)
16.02.2008 23:00 -1.5 C 57 % 1042.1 hPa 0.0 l/m 3.1 km/h (1 Bft) NO 0.00 h 0 W/m -8.9 C -2.1 C 6.7 km/h (2 Bft)
17.02.2008 00:00 -1.9 C 57 % 1042.0 hPa 0.0 l/m 3.9 km/h (1 Bft) NO 0.00 h 0 W/m -9.3 C -2.9 C 8.0 km/h (2 Bft)
17.02.2008 01:00 -2.3 C 58 % 1041.9 hPa 0.0 l/m 3.0 km/h (1 Bft) O-NO 0.00 h 0 W/m -9.6 C -2.9 C 6.2 km/h (2 Bft)
17.02.2008 02:00 -2.8 C 58 % 1041.6 hPa 0.0 l/m 2.5 km/h (1 Bft) N-NO 0.00 h 0 W/m -9.9 C -3.2 C 6.1 km/h (2 Bft)
17.02.2008 03:00 -3.3 C 59 % 1041.3 hPa 0.0 l/m 1.4 km/h (1 Bft) N-NO 0.00 h 0 W/m -10.2 C -3.5 C 3.6 km/h (1 Bft)
17.02.2008 04:00 -3.9 C 63 % 1041.1 hPa 0.0 l/m 0.8 km/h (0 Bft) SO 0.00 h 0 W/m -10.0 C -3.9 C 1.9 km/h (1 Bft)
17.02.2008 05:00 -4.9 C 68 % 1041.3 hPa 0.0 l/m 1.4 km/h (1 Bft) SO 0.00 h 0 W/m -9.8 C -4.9 C 2.6 km/h (1 Bft)
17.02.2008 06:00 -5.1 C 67 % 1041.4 hPa 0.0 l/m 4.4 km/h (1 Bft) O 0.00 h 0 W/m -10.3 C -6.4 C 6.2 km/h (2 Bft)
17.02.2008 07:00 -5.2 C 67 % 1041.8 hPa 0.0 l/m 3.8 km/h (1 Bft) O-SO 0.05 h 11 W/m -10.3 C -6.7 C 5.2 km/h (1 Bft)
17.02.2008 08:00 -4.4 C 65 % 1042.4 hPa 0.0 l/m 0.2 km/h (0 Bft) O-SO 0.52 h 84 W/m -10.0 C -4.4 C 0.7 km/h (0 Bft)
17.02.2008 09:00 -3.0 C 62 % 1042.8 hPa 0.0 l/m 1.4 km/h (1 Bft) O-SO 1.00 h 232 W/m -9.2 C -3.0 C 2.8 km/h (1 Bft)
17.02.2008 10:00 -1.0 C 53 % 1042.5 hPa 0.0 l/m 3.1 km/h (1 Bft) O-SO 1.00 h 356 W/m -9.3 C -1.5 C 5.7 km/h (1 Bft)
17.02.2008 11:00 0.5 C 52 % 1042.2 hPa 0.0 l/m 3.0 km/h (1 Bft) SO 1.00 h 441 W/m -8.3 C 0.2 C 5.6 km/h (1 Bft)
17.02.2008 12:00 1.8 C 51 % 1041.6 hPa 0.0 l/m 2.8 km/h (1 Bft) SO 1.00 h 480 W/m -7.3 C 1.5 C 5.0 km/h (1 Bft)
17.02.2008 13:00 3.4 C 48 % 1040.8 hPa 0.0 l/m 2.7 km/h (1 Bft) S-SO 1.00 h 462 W/m -6.4 C 3.2 C 5.0 km/h (1 Bft)
17.02.2008 14:00 5.0 C 45 % 1040.0 hPa 0.0 l/m 2.4 km/h (1 Bft) S 1.00 h 406 W/m -6.0 C 4.9 C 4.8 km/h (1 Bft)
17.02.2008 15:00 5.2 C 44 % 1039.6 hPa 0.0 l/m 1.5 km/h (1 Bft) S-SO 1.00 h 296 W/m -6.1 C 5.2 C 3.5 km/h (1 Bft)
17.02.2008 16:00 5.6 C 42 % 1039.6 hPa 0.0 l/m 1.6 km/h (1 Bft) W-SW 1.00 h 159 W/m -6.3 C 5.6 C 3.2 km/h (1 Bft)
17.02.2008 17:00 4.4 C 47 % 1039.9 hPa 0.0 l/m 0.4 km/h (0 Bft) W-SW 0.42 h 34 W/m -5.9 C 4.4 C 1.1 km/h (1 Bft)
17.02.2008 18:00 1.0 C 63 % 1040.3 hPa 0.0 l/m 3.9 km/h (1 Bft) O-SO 0.00 h 0 W/m -5.4 C -0.1 C 5.2 km/h (1 Bft)
17.02.2008 19:00 -0.7 C 72 % 1040.7 hPa 0.0 l/m 1.4 km/h (1 Bft) O-SO 0.00 h 0 W/m -5.1 C -0.8 C 2.7 km/h (1 Bft)
17.02.2008 20:00 -1.8 C 77 % 1040.8 hPa 0.0 l/m 2.1 km/h (1 Bft) O-SO 0.00 h 0 W/m -5.3 C -2.1 C 3.0 km/h (1 Bft)
17.02.2008 21:00 -2.1 C 79 % 1040.5 hPa 0.0 l/m 0.1 km/h (0 Bft) O-SO 0.00 h 0 W/m -5.3 C -2.1 C 0.3 km/h (0 Bft)
17.02.2008 22:00 -3.1 C 80 % 1040.2 hPa 0.0 l/m 0.4 km/h (0 Bft) O-SO 0.00 h 0 W/m -6.0 C -3.1 C 0.9 km/h (0 Bft)
17.02.2008 23:00 -3.3 C 83 % 1039.8 hPa 0.0 l/m 0.6 km/h (0 Bft) O-SO 0.00 h 0 W/m -5.8 C -3.3 C 1.3 km/h (1 Bft)
Min-Datum _ 17.02.08 16.02.08 12.02.08 - 11.02.08 - - - 17.02.08 17.02.08 11.02.08
_ Min-Zeit 07:12 16:06 15:00 - 00:00 - - - 07:13 07:15 00:03
Minimum _ -5.8 C 32 % 1030.5 hPa - 0.0 km/h (0 Bft) - - - -10.9 C -9.9 C 0.0 km/h (0 Bft)
Max-Datum _ 11.02.08 14.02.08 17.02.08 11.02.08 11.02.08 - 11.02.08 16.02.08 14.02.08 11.02.08 15.02.08
_ Max-Zeit 15:13 10:00 09:15 00:00 12:46 - 07:51 12:34 15:02 15:12 19:16
Maximum _ 10.6 C 97 % 1042.9 hPa 0.0 l/m 19.6 km/h
O-SO (3 Bft)
- 0.02 h 487 W/m 0.9 C 10.6 C 34.8 km/h
O-NO (5 Bft)
Durchschnitt _ 0.8 C 72 % 1035.7 hPa #0.0 l/m 2.4 km/h (1 Bft) O-SO #48:54 h 209 W/m -4.1 C 0.5 C 4.6 km/h (1 Bft)
© Kaiko 2008